Pagrindinis puslapis
METAR-TAF:

METAR-TAF

Oro uostai :

Base Presidente Eduardo Frei Montalva, Čilė

platuma: 62-11-28S, ilguma: 58-59-11W, Aukštis: 45 m

Dabartinis oras

Ataskaita buvo paskelbta 13 minutes, ne 19:00 UTC
Vėjas 9 kt iš Pietryčių
Temperatūra 0°C
Drėgmė 100%
Slėgis 980 hPa
Matomumas: 0900 m
Apsiniaukę ne aukštis 300 ft
rūkas

METAR: SCRM 211900Z 14009KT 0900 FG OVC003 M00/M00 Q0980

Laikas: 16:13 (19:13 UTC)


TAF: trūkstamas

Orai ataskaitas ir orų prognozės (METAR, TAF).

turimą stotys yra geltonos ir raudonos taškus žemėlapyje.

Perkelti pele per norėdami pamatyti stoties vardą.

Tada spustelėkite, norėdami matyti oro stebėjimo ir prognozės.

Norėdami pakeisti žemėlapį: spustelėkite ant žalios mygtukų su juodo kryžiaus žemyn,; žalią mygtuką su brūkšneliu, jei norite nutolinti; arba žalių rodyklių gretimoms žemėlapius.


METAR-TAF: